KSRB  Upper Cumberland Regional Airport

Add Bookmark

Sparta, Tennessee, United States

Status Useage
Operational Public
Latitude Longitude
36° 3' 24" N 85° 31' 48" W
36.056739 -85.530108
Local (DST -5) UTC (GMT -6)
Dec 21, 2014 04:41 Dec 21, 2014 10:41
Sunrise-Sunset Local UTC
Begin Civil Twilight 06:19 12:19
Sunrise 06:48 12:48
Sunset 04:33 22:33
End Civil Twilight 05:01 23:01

Current Weather

METAR Observed VFR
KSRB 211015Z AUTO 00000KT 10SM CLR M06/M07 A3022 Sun, Dec 21, 2014 @ 10:15 UTC
(26 Minutes ago)
Visual Flight Rules
Wind Visibility Clouds Conditions
Calm 10 statute miles
  • Clear skies
  • No significant weather
Temperatures Readings Precipitation
Current Temp -6°C (21°F)
Dewpoint -7°C (19°F)
Humidity 93%
Altimeter 30.22"Hg
Sea Level Pressure 1023mb
None Recorded

Additional weather within a 50nm radius of KSRB

Map ICAO Location
KCSV 22.5nm E (106°)
KRNC 26.3nm S (215°)
KMQY 48.1nm W (267°)

24 Hour Weather History

Loading
-

24 Hour Weather Graphs

Loading
-

CheckWX.com is intended as a tool to help pilots better visualize weather data. It is not intended as a substitute for an official weather briefing obtained from a Flight Service Station. CheckWX.com does not meet the FAA requirements for an official pre-flight weather briefing. Therefore, it's important that pilots still call and obtain an official FSS pre-flight weather briefing.